Alexandria, Minnesota
Current Conditions -  °F | °C
As of 3:53 PM on Sunday 23 Nov 2014 (Local Time) from KAXN Reporting Station
Overcast Overcast  
Wind Chill: 29°   Ceiling: 1400
Heat Index: 37°   Visibility: 10mi
Dew Point: 33°   Wind: 12mph
Humidity: 86%   Direction: 290°WNW
Pressure: 29.43"   Gusts: NA
Location:  45.89°N, 95.37°W
Report Text: KAXN 232153Z AUTO 29010KT 10SM BKN014 OVC038 03/01 A2943 RMK AO2 SLP978 T00280006
Loading
Personal Weather Stations






























Interactive Weather Map New forecast layout! Learn more

10-Day Weather Forecast

Advertisements
Track Severe Weather on mobile